createdAt,value
2023-03-04T00:00:12.627Z,75.68
2023-03-04T00:00:46.467Z,75.85
2023-03-04T00:01:18.073Z,75.79
2023-03-04T00:01:50.667Z,76.08
2023-03-04T00:02:22.455Z,75.95
2023-03-04T00:02:54.168Z,75.97
2023-03-04T00:03:25.847Z,76.07
2023-03-04T00:03:57.493Z,76.29
2023-03-04T00:04:29.070Z,76.07
2023-03-04T00:05:00.698Z,76.04
2023-03-04T00:05:32.792Z,76.34
2023-03-04T00:06:05.250Z,76.21
2023-03-04T00:06:36.810Z,76.38
2023-03-04T00:07:08.552Z,76.34
2023-03-04T00:07:40.184Z,76.52
2023-03-04T00:08:11.875Z,76.67
2023-03-04T00:08:43.528Z,76.36
2023-03-04T00:09:15.140Z,76.73
2023-03-04T00:09:47.247Z,76.85
2023-03-04T00:10:19.064Z,76.49
2023-03-04T00:10:50.705Z,76.71
2023-03-04T00:11:22.360Z,76.67
2023-03-04T00:11:54.073Z,76.58
2023-03-04T00:12:25.682Z,76.44
2023-03-04T00:12:57.301Z,76.53
2023-03-04T00:13:28.981Z,76.76
2023-03-04T00:14:00.904Z,76.71
2023-03-04T00:14:32.461Z,76.51
2023-03-04T00:15:04.308Z,76.66
2023-03-04T00:15:35.868Z,76.37
2023-03-04T00:16:07.983Z,76.50
2023-03-04T00:16:39.652Z,76.25
2023-03-04T00:17:11.377Z,76.70
2023-03-04T00:17:43.026Z,76.46
2023-03-04T00:18:14.623Z,76.48
2023-03-04T00:18:46.204Z,76.39
2023-03-04T00:19:17.826Z,76.63
2023-03-04T00:19:49.462Z,76.52
2023-03-04T00:20:21.134Z,76.14
2023-03-04T00:20:52.724Z,76.23
2023-03-04T00:21:24.900Z,76.04
2023-03-04T00:21:56.746Z,76.39
2023-03-04T00:22:28.334Z,76.17
2023-03-04T00:22:59.947Z,76.34
2023-03-04T00:23:31.647Z,76.32
2023-03-04T00:24:03.488Z,76.52
2023-03-04T00:24:35.331Z,76.25
2023-03-04T00:25:07.484Z,76.37
2023-03-04T00:25:39.126Z,76.21
2023-03-04T00:26:10.825Z,76.25
2023-03-04T00:26:42.518Z,76.08
2023-03-04T00:27:14.128Z,76.12
2023-03-04T00:27:45.791Z,76.12
2023-03-04T00:28:17.459Z,76.43
2023-03-04T00:28:49.059Z,76.46
2023-03-04T00:29:22.886Z,76.27
2023-03-04T00:29:54.498Z,76.25
2023-03-04T00:30:26.140Z,76.29
2023-03-04T00:30:58.015Z,76.01
2023-03-04T00:31:29.625Z,76.09
2023-03-04T00:32:01.342Z,75.94
2023-03-04T00:32:33.258Z,75.91
2023-03-04T00:33:04.879Z,76.09
2023-03-04T00:33:36.887Z,76.18
2023-03-04T00:34:08.552Z,76.00
2023-03-04T00:34:40.784Z,75.80
2023-03-04T00:35:12.476Z,76.05
2023-03-04T00:35:44.219Z,75.84
2023-03-04T00:36:15.883Z,75.68
2023-03-04T00:36:47.595Z,76.08
2023-03-04T00:37:19.190Z,75.79
2023-03-04T00:37:51.045Z,75.92
2023-03-04T00:38:22.750Z,75.88
2023-03-04T00:38:54.397Z,76.04
2023-03-04T00:39:25.981Z,76.07
2023-03-04T00:39:57.593Z,76.16
2023-03-04T00:40:29.200Z,75.95
2023-03-04T00:41:00.883Z,76.12
2023-03-04T00:41:32.520Z,76.49
2023-03-04T00:42:04.194Z,76.52
2023-03-04T00:42:35.849Z,76.19
2023-03-04T00:43:07.532Z,76.51
2023-03-04T00:43:39.312Z,76.45
2023-03-04T00:44:10.931Z,76.67
2023-03-04T00:44:42.660Z,76.40
2023-03-04T00:45:14.338Z,76.14
2023-03-04T00:45:46.015Z,76.15
2023-03-04T00:46:17.711Z,76.15
2023-03-04T00:46:49.347Z,76.28
2023-03-04T00:47:20.939Z,76.36
2023-03-04T00:47:52.551Z,76.44
2023-03-04T00:48:24.284Z,76.28
2023-03-04T00:48:55.860Z,76.29
2023-03-04T00:49:27.563Z,76.39
2023-03-04T00:49:59.166Z,76.48
2023-03-04T00:50:30.904Z,76.15
2023-03-04T00:51:02.508Z,76.27
2023-03-04T00:51:34.393Z,76.16
2023-03-04T00:52:06.158Z,75.99
2023-03-04T00:52:37.841Z,76.27
2023-03-04T00:53:10.099Z,76.22
2023-03-04T00:53:41.678Z,76.42
2023-03-04T00:54:13.365Z,76.32
2023-03-04T00:54:44.966Z,76.46
2023-03-04T00:55:16.602Z,76.19
2023-03-04T00:55:48.221Z,76.47
2023-03-04T00:56:19.857Z,76.45
2023-03-04T00:56:51.490Z,76.22
2023-03-04T00:57:23.164Z,76.14
2023-03-04T00:57:54.860Z,76.62
2023-03-04T00:58:26.554Z,76.43
2023-03-04T00:58:58.225Z,76.72
2023-03-04T00:59:29.857Z,76.51
2023-03-04T01:00:01.411Z,76.61
2023-03-04T01:00:33.093Z,76.44
2023-03-04T01:01:04.968Z,76.42
2023-03-04T01:01:36.663Z,76.54
2023-03-04T01:02:08.344Z,76.50
2023-03-04T01:02:39.962Z,76.54
2023-03-04T01:03:11.647Z,76.36
2023-03-04T01:03:43.306Z,76.94
2023-03-04T01:04:14.908Z,76.99
2023-03-04T01:04:46.528Z,76.74
2023-03-04T01:05:18.211Z,76.30
2023-03-04T01:05:49.758Z,75.57
2023-03-04T01:06:21.529Z,76.05
2023-03-04T01:06:53.184Z,75.94
2023-03-04T01:07:24.734Z,75.80
2023-03-04T01:07:56.326Z,76.02
2023-03-04T01:08:27.998Z,75.80
2023-03-04T01:08:59.592Z,75.91
2023-03-04T01:09:31.554Z,75.79
2023-03-04T01:10:03.237Z,75.90
2023-03-04T01:10:34.813Z,76.09
2023-03-04T01:11:07.081Z,76.02
2023-03-04T01:11:38.757Z,76.31
2023-03-04T01:12:10.340Z,76.32
2023-03-04T01:12:42.526Z,76.15
2023-03-04T01:13:14.365Z,76.39
2023-03-04T01:13:46.327Z,76.06
2023-03-04T01:14:18.049Z,76.12
2023-03-04T01:14:49.745Z,76.08
2023-03-04T01:15:21.393Z,76.52
2023-03-04T01:15:53.123Z,76.36
2023-03-04T01:16:24.842Z,76.55
2023-03-04T01:16:56.537Z,76.55
2023-03-04T01:17:28.140Z,76.77
2023-03-04T01:17:59.729Z,76.68
2023-03-04T01:18:31.447Z,76.85
2023-03-04T01:19:03.067Z,76.83
2023-03-04T01:19:34.621Z,77.00
2023-03-04T01:20:10.393Z,77.05
2023-03-04T01:20:42.057Z,77.15
2023-03-04T01:21:14.124Z,76.79
2023-03-04T01:21:45.763Z,76.64
2023-03-04T01:22:19.189Z,76.89
2023-03-04T01:22:50.764Z,76.82
2023-03-04T01:23:22.501Z,76.88
2023-03-04T01:23:54.115Z,76.96
2023-03-04T01:24:25.775Z,77.28
2023-03-04T01:24:57.470Z,76.91
2023-03-04T01:25:29.050Z,76.88
2023-03-04T01:26:00.752Z,77.04
2023-03-04T01:26:32.396Z,77.08
2023-03-04T01:27:04.152Z,76.87
2023-03-04T01:27:35.792Z,76.91
2023-03-04T01:28:07.394Z,76.80
2023-03-04T01:28:39.025Z,76.66
2023-03-04T01:29:10.856Z,76.44
2023-03-04T01:29:42.515Z,76.28
2023-03-04T01:30:14.268Z,76.40
2023-03-04T01:30:46.010Z,76.17
2023-03-04T01:31:17.742Z,75.97
2023-03-04T01:31:49.422Z,76.37
2023-03-04T01:32:21.241Z,76.04
2023-03-04T01:32:52.944Z,75.90
2023-03-04T01:33:24.566Z,75.93
2023-03-04T01:33:56.193Z,76.08
2023-03-04T01:34:27.805Z,76.05
2023-03-04T01:34:59.453Z,76.07
2023-03-04T01:35:31.236Z,76.00
2023-03-04T01:36:02.872Z,76.26
2023-03-04T01:36:34.488Z,76.36
2023-03-04T01:37:06.130Z,76.53
2023-03-04T01:37:37.790Z,76.34
2023-03-04T01:38:09.449Z,76.90
2023-03-04T01:38:41.091Z,76.62
2023-03-04T01:39:12.711Z,76.94
2023-03-04T01:39:44.390Z,76.75
2023-03-04T01:40:16.051Z,76.79
2023-03-04T01:40:49.314Z,77.17
2023-03-04T01:41:25.455Z,77.13
2023-03-04T01:41:57.021Z,77.01
2023-03-04T01:42:31.015Z,77.17
2023-03-04T01:43:02.849Z,77.06
2023-03-04T01:43:36.106Z,77.27
2023-03-04T01:44:09.892Z,77.21
2023-03-04T01:44:41.617Z,77.31
2023-03-04T01:45:17.776Z,77.03
2023-03-04T01:45:50.611Z,77.49
2023-03-04T01:46:22.440Z,77.64
2023-03-04T01:46:55.255Z,77.49
2023-03-04T01:47:29.373Z,77.78
2023-03-04T01:48:01.034Z,77.52
2023-03-04T01:48:37.378Z,77.52
2023-03-04T01:49:10.392Z,77.40
2023-03-04T01:49:42.158Z,77.48
2023-03-04T01:50:18.157Z,77.26
2023-03-04T01:50:49.713Z,77.19
2023-03-04T01:51:21.865Z,77.17
2023-03-04T01:51:54.651Z,77.15
2023-03-04T01:52:27.640Z,76.87
2023-03-04T01:52:59.619Z,77.05
2023-03-04T01:53:32.291Z,76.83
2023-03-04T01:54:03.942Z,76.66
2023-03-04T01:54:35.583Z,76.90
2023-03-04T01:55:15.934Z,76.79
2023-03-04T01:55:48.295Z,76.83
2023-03-04T01:56:24.005Z,76.66
2023-03-04T01:56:55.598Z,76.78
2023-03-04T01:57:27.322Z,76.88
2023-03-04T01:57:58.947Z,77.16
2023-03-04T01:58:32.154Z,76.90
2023-03-04T01:59:09.595Z,77.24
2023-03-04T01:59:41.499Z,77.35
2023-03-04T02:00:15.866Z,77.30
2023-03-04T02:00:47.540Z,77.10
2023-03-04T02:01:19.185Z,77.31
2023-03-04T02:01:53.917Z,77.36
2023-03-04T02:02:25.594Z,77.64
2023-03-04T02:03:09.141Z,77.65
2023-03-04T02:03:40.850Z,77.40
2023-03-04T02:04:12.938Z,77.58
2023-03-04T02:04:44.758Z,77.39
2023-03-04T02:05:16.456Z,77.48
2023-03-04T02:05:50.460Z,77.23
2023-03-04T02:06:22.066Z,77.00
2023-03-04T02:06:54.095Z,76.97
2023-03-04T02:07:25.800Z,77.00
2023-03-04T02:07:58.233Z,76.93
2023-03-04T02:08:29.955Z,76.97
2023-03-04T02:09:01.584Z,76.83
2023-03-04T02:09:34.231Z,76.99
2023-03-04T02:10:06.272Z,77.23
2023-03-04T02:10:38.728Z,76.95
2023-03-04T02:11:10.327Z,77.05
2023-03-04T02:11:42.768Z,76.93
2023-03-04T02:12:14.395Z,76.89
2023-03-04T02:12:46.145Z,76.89
2023-03-04T02:13:18.257Z,76.74
2023-03-04T02:13:49.962Z,76.80
2023-03-04T02:14:22.383Z,76.54
2023-03-04T02:14:54.920Z,76.52
2023-03-04T02:15:26.510Z,76.72
2023-03-04T02:15:58.200Z,76.86
2023-03-04T02:16:29.818Z,77.07
2023-03-04T02:17:01.466Z,76.75
2023-03-04T02:17:33.594Z,76.69
2023-03-04T02:18:20.901Z,76.91
2023-03-04T02:18:52.574Z,76.88
2023-03-04T02:19:26.767Z,76.98
2023-03-04T02:20:33.044Z,77.35
2023-03-04T02:21:13.049Z,77.01
2023-03-04T02:21:44.603Z,76.96
2023-03-04T02:22:16.254Z,77.15
2023-03-04T02:22:57.664Z,77.25
2023-03-04T02:23:47.372Z,77.55
2023-03-04T02:24:49.303Z,77.64
2023-03-04T02:25:25.929Z,77.41
2023-03-04T02:26:13.761Z,77.35
2023-03-04T02:26:46.999Z,77.56
2023-03-04T02:27:21.007Z,77.25
2023-03-04T02:27:53.549Z,77.42
2023-03-04T02:28:25.159Z,77.36
2023-03-04T02:28:58.397Z,77.91
2023-03-04T02:29:30.006Z,78.12
2023-03-04T02:30:01.680Z,78.17
2023-03-04T02:30:33.294Z,78.48
2023-03-04T02:31:05.084Z,78.31
2023-03-04T02:31:39.544Z,78.73
2023-03-04T02:32:12.834Z,79.73
2023-03-04T02:32:44.523Z,79.47
2023-03-04T02:33:18.040Z,79.59
2023-03-04T02:33:50.650Z,79.53
2023-03-04T02:34:29.382Z,79.81
2023-03-04T02:35:01.025Z,79.92
2023-03-04T02:35:32.849Z,80.69
2023-03-04T02:36:04.646Z,80.77
2023-03-04T02:36:36.555Z,80.65
2023-03-04T02:37:10.911Z,80.59
2023-03-04T02:37:42.565Z,80.47
2023-03-04T02:38:14.227Z,80.34
2023-03-04T02:38:45.913Z,80.09
2023-03-04T02:39:20.161Z,80.46
2023-03-04T02:39:51.884Z,80.50
2023-03-04T02:40:26.620Z,80.45
2023-03-04T02:40:58.500Z,80.37
2023-03-04T02:41:30.587Z,80.54
2023-03-04T02:42:03.808Z,80.26
2023-03-04T02:42:35.456Z,80.28
2023-03-04T02:43:07.184Z,80.04
2023-03-04T02:43:38.853Z,80.06
2023-03-04T02:44:22.399Z,80.31
2023-03-04T02:45:01.244Z,80.56
2023-03-04T02:45:37.195Z,80.08
2023-03-04T02:46:12.095Z,79.93
2023-03-04T02:46:43.919Z,79.84
2023-03-04T02:47:20.538Z,79.92
2023-03-04T02:47:52.198Z,79.26
2023-03-04T02:48:26.758Z,79.48
2023-03-04T02:48:58.335Z,79.15
2023-03-04T02:49:31.182Z,78.99
2023-03-04T02:50:02.817Z,79.13
2023-03-04T02:50:39.172Z,78.84
2023-03-04T02:51:11.125Z,78.67
2023-03-04T02:51:42.751Z,78.57
2023-03-04T02:52:18.302Z,78.56
2023-03-04T02:52:49.897Z,78.87
2023-03-04T02:53:22.441Z,78.45
2023-03-04T02:53:53.994Z,78.53
2023-03-04T02:54:25.592Z,78.25
2023-03-04T02:54:57.269Z,78.20
2023-03-04T02:55:29.692Z,78.27
2023-03-04T02:56:01.322Z,78.37
2023-03-04T02:56:33.042Z,78.33
2023-03-04T02:57:08.003Z,78.38
2023-03-04T02:57:39.597Z,78.14
2023-03-04T02:58:11.957Z,78.14
2023-03-04T02:58:43.550Z,78.00
2023-03-04T02:59:15.277Z,78.22
2023-03-04T02:59:46.950Z,78.44
2023-03-04T03:00:18.727Z,78.14
2023-03-04T03:00:50.369Z,78.10
2023-03-04T03:01:22.108Z,77.96
2023-03-04T03:01:53.920Z,78.08
2023-03-04T03:02:27.132Z,77.89
2023-03-04T03:02:58.993Z,78.14
2023-03-04T03:03:30.668Z,77.80
2023-03-04T03:04:02.336Z,77.90
2023-03-04T03:04:35.120Z,78.20
2023-03-04T03:05:06.965Z,78.06
2023-03-04T03:05:39.398Z,78.13
2023-03-04T03:06:11.085Z,78.08
2023-03-04T03:06:42.703Z,77.94
2023-03-04T03:07:14.384Z,77.73
2023-03-04T03:07:46.112Z,77.59
2023-03-04T03:08:17.702Z,77.72
2023-03-04T03:08:49.316Z,77.88
2023-03-04T03:09:21.459Z,77.68
2023-03-04T03:09:53.022Z,77.83
2023-03-04T03:10:24.797Z,77.79
2023-03-04T03:10:56.489Z,77.57
2023-03-04T03:11:28.090Z,77.46
2023-03-04T03:11:59.787Z,77.43
2023-03-04T03:12:31.421Z,77.46
2023-03-04T03:13:03.321Z,77.57
2023-03-04T03:13:34.969Z,77.14
2023-03-04T03:14:06.633Z,77.13
2023-03-04T03:14:38.265Z,77.41
2023-03-04T03:15:10.286Z,77.50
2023-03-04T03:15:42.540Z,77.38
2023-03-04T03:16:14.198Z,77.65
2023-03-04T03:16:45.885Z,77.28
2023-03-04T03:17:17.529Z,77.44
2023-03-04T03:17:49.250Z,77.71
2023-03-04T03:18:20.917Z,77.57
2023-03-04T03:18:52.593Z,77.44
2023-03-04T03:19:24.175Z,77.49
2023-03-04T03:19:56.671Z,77.57
2023-03-04T03:20:28.212Z,77.12
2023-03-04T03:20:59.795Z,77.48
2023-03-04T03:21:31.459Z,77.46
2023-03-04T03:22:03.175Z,77.38
2023-03-04T03:22:34.762Z,77.36
2023-03-04T03:23:06.325Z,77.13
2023-03-04T03:23:37.901Z,77.39
2023-03-04T03:24:09.493Z,77.28
2023-03-04T03:24:41.146Z,77.31
2023-03-04T03:25:14.244Z,77.39
2023-03-04T03:25:45.793Z,77.46
2023-03-04T03:26:18.366Z,77.68
2023-03-04T03:26:49.992Z,77.39
2023-03-04T03:27:21.622Z,77.19
2023-03-04T03:27:53.244Z,77.22
2023-03-04T03:28:24.836Z,77.07
2023-03-04T03:28:56.442Z,77.19
2023-03-04T03:29:28.007Z,77.07
2023-03-04T03:29:59.634Z,77.09
2023-03-04T03:30:31.358Z,77.42
2023-03-04T03:31:03.027Z,77.34
2023-03-04T03:31:34.790Z,77.32
2023-03-04T03:32:06.576Z,76.94
2023-03-04T03:32:38.282Z,77.14
2023-03-04T03:33:09.956Z,76.93
2023-03-04T03:33:41.581Z,76.76
2023-03-04T03:34:13.241Z,76.78
2023-03-04T03:34:44.870Z,76.98
2023-03-04T03:35:16.495Z,76.54
2023-03-04T03:35:48.297Z,76.41
2023-03-04T03:36:20.107Z,76.50
2023-03-04T03:36:51.744Z,76.71
2023-03-04T03:37:23.642Z,76.84
2023-03-04T03:37:55.268Z,76.70
2023-03-04T03:38:27.650Z,76.42
2023-03-04T03:38:59.262Z,76.71
2023-03-04T03:39:30.851Z,76.58
2023-03-04T03:40:02.817Z,76.77
2023-03-04T03:40:34.509Z,76.72
2023-03-04T03:41:06.108Z,76.67
2023-03-04T03:41:37.674Z,76.91
2023-03-04T03:42:09.301Z,76.61
2023-03-04T03:42:41.027Z,76.87
2023-03-04T03:43:12.603Z,76.80
2023-03-04T03:43:44.152Z,77.07
2023-03-04T03:44:16.103Z,77.26
2023-03-04T03:44:47.844Z,77.67
2023-03-04T03:45:19.422Z,77.58
2023-03-04T03:45:52.164Z,77.48
2023-03-04T03:46:23.891Z,77.33
2023-03-04T03:46:55.528Z,77.50
2023-03-04T03:47:27.431Z,77.35
2023-03-04T03:47:59.015Z,77.28
2023-03-04T03:48:30.609Z,77.20
2023-03-04T03:49:02.170Z,77.11
2023-03-04T03:49:33.758Z,76.71
2023-03-04T03:50:05.956Z,76.80
2023-03-04T03:50:37.657Z,76.59
2023-03-04T03:51:09.595Z,76.51
2023-03-04T03:51:41.282Z,76.71
2023-03-04T03:52:13.053Z,76.75
2023-03-04T03:52:44.631Z,76.67
2023-03-04T03:53:16.226Z,76.46
2023-03-04T03:53:47.841Z,76.45
2023-03-04T03:54:19.575Z,76.28
2023-03-04T03:54:51.251Z,76.33
2023-03-04T03:55:23.274Z,76.56
2023-03-04T03:55:54.924Z,76.26
2023-03-04T03:56:26.508Z,76.50
2023-03-04T03:56:58.192Z,76.40
2023-03-04T03:57:30.166Z,76.29
2023-03-04T03:58:01.736Z,76.17
2023-03-04T03:58:33.369Z,76.22
2023-03-04T03:59:05.002Z,76.30
2023-03-04T03:59:36.623Z,76.32
2023-03-04T04:00:10.355Z,76.20
2023-03-04T04:00:41.924Z,76.50
2023-03-04T04:01:13.480Z,76.18
2023-03-04T04:01:45.203Z,76.39
2023-03-04T04:02:16.918Z,76.31
2023-03-04T04:02:48.662Z,76.22
2023-03-04T04:03:20.761Z,76.32
2023-03-04T04:03:53.177Z,76.30
2023-03-04T04:04:24.841Z,76.41
2023-03-04T04:04:56.529Z,76.56
2023-03-04T04:05:28.174Z,76.37
2023-03-04T04:05:59.842Z,76.65
2023-03-04T04:06:31.467Z,76.45
2023-03-04T04:07:03.220Z,76.30
2023-03-04T04:07:34.938Z,76.37
2023-03-04T04:08:06.621Z,76.46
2023-03-04T04:08:38.437Z,76.21
2023-03-04T04:09:10.029Z,76.60
2023-03-04T04:09:41.681Z,76.91
2023-03-04T04:10:13.248Z,76.98
2023-03-04T04:10:45.043Z,77.32
2023-03-04T04:11:16.714Z,77.37
2023-03-04T04:11:48.440Z,78.38
2023-03-04T04:12:20.457Z,78.08
2023-03-04T04:12:52.078Z,78.40
2023-03-04T04:13:23.793Z,78.45
2023-03-04T04:13:55.433Z,78.93
2023-03-04T04:14:27.012Z,78.74
2023-03-04T04:14:58.681Z,78.96
2023-03-04T04:15:30.270Z,78.63
2023-03-04T04:16:01.908Z,78.79
2023-03-04T04:16:33.702Z,79.10
2023-03-04T04:17:05.433Z,79.17
2023-03-04T04:17:37.058Z,79.30
2023-03-04T04:18:09.037Z,79.27
2023-03-04T04:18:40.654Z,79.11
2023-03-04T04:19:17.995Z,79.23
2023-03-04T04:19:49.606Z,79.75
2023-03-04T04:20:21.260Z,79.39
2023-03-04T04:20:53.754Z,79.33
2023-03-04T04:21:25.355Z,79.47
2023-03-04T04:21:56.913Z,79.32
2023-03-04T04:22:28.486Z,79.26
2023-03-04T04:23:00.070Z,78.89
2023-03-04T04:23:31.893Z,78.74
2023-03-04T04:24:03.569Z,78.82
2023-03-04T04:24:36.048Z,78.78
2023-03-04T04:25:10.655Z,78.22
2023-03-04T04:25:42.302Z,77.94
2023-03-04T04:26:13.916Z,77.95
2023-03-04T04:26:45.524Z,78.09
2023-03-04T04:27:17.136Z,78.03
2023-03-04T04:27:48.705Z,77.62
2023-03-04T04:28:20.359Z,77.56
2023-03-04T04:28:52.017Z,77.49
2023-03-04T04:29:23.642Z,77.20
2023-03-04T04:29:55.324Z,77.26
2023-03-04T04:30:26.965Z,77.13
2023-03-04T04:30:58.627Z,77.10
2023-03-04T04:31:30.243Z,77.22
2023-03-04T04:32:01.939Z,77.21
2023-03-04T04:32:33.642Z,77.16
2023-03-04T04:33:05.293Z,76.96
2023-03-04T04:33:36.897Z,76.71
2023-03-04T04:34:09.033Z,76.83
2023-03-04T04:34:40.717Z,76.76
2023-03-04T04:35:12.477Z,76.88
2023-03-04T04:35:44.155Z,76.58
2023-03-04T04:36:20.856Z,76.83
2023-03-04T04:36:53.066Z,77.05
2023-03-04T04:37:24.634Z,77.01
2023-03-04T04:37:56.715Z,76.69
2023-03-04T04:38:28.441Z,76.62
2023-03-04T04:39:00.190Z,76.82
2023-03-04T04:39:31.895Z,76.79
2023-03-04T04:40:04.381Z,76.96
2023-03-04T04:40:36.529Z,76.59
2023-03-04T04:41:19.256Z,76.84
2023-03-04T04:41:50.884Z,76.93
2023-03-04T04:42:22.773Z,77.06
2023-03-04T04:42:54.367Z,77.22
2023-03-04T04:43:26.125Z,76.96
2023-03-04T04:43:57.743Z,76.87
2023-03-04T04:44:29.371Z,76.87
2023-03-04T04:45:01.136Z,76.88
2023-03-04T04:45:32.792Z,76.92
2023-03-04T04:46:04.556Z,76.89
2023-03-04T04:46:36.896Z,77.24
2023-03-04T04:47:09.947Z,77.63
2023-03-04T04:47:41.656Z,77.72
2023-03-04T04:48:13.296Z,77.67
2023-03-04T04:48:45.036Z,77.68
2023-03-04T04:49:16.634Z,77.53
2023-03-04T04:49:48.242Z,77.53
2023-03-04T04:50:20.026Z,77.47
2023-03-04T04:50:56.340Z,77.78
2023-03-04T04:51:28.375Z,77.75
2023-03-04T04:52:00.055Z,77.61
2023-03-04T04:52:31.660Z,78.01
2023-03-04T04:53:03.421Z,78.05
2023-03-04T04:53:35.226Z,77.90
2023-03-04T04:54:07.624Z,78.50
2023-03-04T04:54:39.227Z,78.35
2023-03-04T04:55:11.121Z,78.29
2023-03-04T04:55:42.798Z,78.32
2023-03-04T04:56:16.813Z,78.38
2023-03-04T04:56:48.585Z,78.37
2023-03-04T04:57:20.214Z,78.56
2023-03-04T04:57:51.880Z,78.69
2023-03-04T04:58:23.780Z,78.67
2023-03-04T04:58:57.784Z,78.86
2023-03-04T04:59:29.383Z,78.71
2023-03-04T05:00:01.049Z,78.90
2023-03-04T05:00:32.608Z,78.56
2023-03-04T05:01:05.039Z,78.56
2023-03-04T05:01:36.729Z,78.30
2023-03-04T05:02:08.378Z,78.31
2023-03-04T05:02:39.939Z,78.35
2023-03-04T05:03:11.567Z,78.06
2023-03-04T05:03:43.412Z,78.20
2023-03-04T05:04:15.089Z,78.24
2023-03-04T05:04:46.705Z,78.29
2023-03-04T05:05:18.313Z,78.24
2023-03-04T05:05:49.907Z,78.22
2023-03-04T05:06:23.856Z,78.34
2023-03-04T05:06:55.456Z,78.09
2023-03-04T05:07:27.008Z,78.27
2023-03-04T05:07:58.853Z,78.17
2023-03-04T05:08:30.506Z,78.42
2023-03-04T05:09:02.382Z,78.22
2023-03-04T05:09:34.088Z,78.38
2023-03-04T05:10:05.996Z,78.81
2023-03-04T05:10:38.192Z,78.36
2023-03-04T05:11:09.811Z,78.86
2023-03-04T05:11:41.457Z,78.84
2023-03-04T05:12:13.215Z,79.12
2023-03-04T05:12:45.295Z,78.73
2023-03-04T05:13:17.014Z,78.90
2023-03-04T05:13:49.497Z,79.07
2023-03-04T05:14:21.053Z,79.04
2023-03-04T05:14:52.673Z,78.89
2023-03-04T05:15:25.097Z,78.82
2023-03-04T05:15:56.989Z,79.01
2023-03-04T05:16:28.632Z,78.59
2023-03-04T05:17:00.321Z,78.78
2023-03-04T05:17:31.895Z,78.87
2023-03-04T05:18:03.545Z,78.73
2023-03-04T05:18:35.192Z,78.62
2023-03-04T05:19:07.037Z,78.79
2023-03-04T05:19:38.657Z,78.78
2023-03-04T05:20:11.079Z,78.58
2023-03-04T05:20:42.702Z,78.91
2023-03-04T05:21:14.597Z,78.75
2023-03-04T05:21:46.236Z,78.59
2023-03-04T05:22:17.876Z,78.55
2023-03-04T05:22:49.559Z,78.41
2023-03-04T05:23:21.253Z,78.57
2023-03-04T05:23:52.872Z,78.27
2023-03-04T05:24:24.549Z,78.48
2023-03-04T05:24:57.301Z,78.24
2023-03-04T05:25:29.110Z,78.42
2023-03-04T05:26:01.333Z,78.52
2023-03-04T05:26:33.297Z,78.22
2023-03-04T05:27:04.899Z,78.12
2023-03-04T05:27:36.516Z,78.38
2023-03-04T05:28:12.562Z,78.10
2023-03-04T05:28:44.949Z,77.91
2023-03-04T05:29:16.600Z,77.75
2023-03-04T05:29:48.137Z,78.04
2023-03-04T05:30:19.831Z,78.00
2023-03-04T05:30:51.516Z,77.72
2023-03-04T05:31:23.275Z,77.85
2023-03-04T05:31:54.927Z,77.59
2023-03-04T05:32:26.960Z,77.81
2023-03-04T05:32:58.612Z,77.45
2023-03-04T05:33:30.599Z,77.60
2023-03-04T05:34:02.283Z,77.78
2023-03-04T05:34:33.892Z,77.46
2023-03-04T05:35:06.520Z,77.68
2023-03-04T05:35:39.112Z,77.37
2023-03-04T05:36:10.834Z,77.60
2023-03-04T05:36:42.444Z,77.85
2023-03-04T05:37:14.076Z,77.37
2023-03-04T05:37:45.684Z,77.60
2023-03-04T05:38:19.589Z,77.48
2023-03-04T05:38:51.405Z,77.46
2023-03-04T05:39:22.998Z,77.52
2023-03-04T05:39:54.624Z,77.38
2023-03-04T05:40:26.261Z,77.21
2023-03-04T05:40:59.542Z,77.17
2023-03-04T05:41:31.206Z,77.48
2023-03-04T05:42:02.758Z,77.15
2023-03-04T05:42:34.373Z,77.24
2023-03-04T05:43:06.168Z,77.24
2023-03-04T05:43:42.915Z,77.15
2023-03-04T05:44:14.727Z,77.18
2023-03-04T05:44:46.366Z,77.35
2023-03-04T05:45:18.112Z,76.95
2023-03-04T05:45:50.031Z,76.91
2023-03-04T05:46:25.694Z,77.26
2023-03-04T05:46:57.473Z,77.09
2023-03-04T05:47:29.009Z,76.76
2023-03-04T05:48:00.712Z,76.75
2023-03-04T05:48:32.376Z,76.92
2023-03-04T05:49:04.139Z,76.70
2023-03-04T05:49:35.785Z,76.98
2023-03-04T05:50:07.827Z,77.02
2023-03-04T05:50:39.461Z,76.74
2023-03-04T05:51:11.382Z,76.94
2023-03-04T05:51:43.031Z,76.83
2023-03-04T05:52:14.657Z,76.87
2023-03-04T05:52:46.431Z,76.72
2023-03-04T05:53:17.967Z,76.52
2023-03-04T05:53:49.951Z,76.61
2023-03-04T05:54:21.857Z,76.37
2023-03-04T05:54:53.511Z,76.68
2023-03-04T05:55:25.316Z,76.46
2023-03-04T05:55:56.998Z,76.42
2023-03-04T05:56:30.155Z,76.29
2023-03-04T05:57:02.551Z,76.59
2023-03-04T05:57:34.164Z,76.63
2023-03-04T05:58:05.699Z,76.53
2023-03-04T05:58:37.473Z,76.29
2023-03-04T05:59:09.069Z,76.38
2023-03-04T05:59:40.620Z,76.18
2023-03-04T06:00:13.457Z,76.35
2023-03-04T06:00:45.688Z,76.16
2023-03-04T06:01:17.714Z,76.13
2023-03-04T06:01:49.484Z,76.11
2023-03-04T06:02:21.059Z,76.19
2023-03-04T06:02:52.784Z,76.03
2023-03-04T06:03:25.388Z,76.00
2023-03-04T06:03:57.220Z,76.31
2023-03-04T06:04:28.836Z,76.10
2023-03-04T06:05:00.632Z,75.78
2023-03-04T06:05:32.271Z,76.29
2023-03-04T06:06:04.260Z,76.04
2023-03-04T06:06:35.929Z,76.16
2023-03-04T06:07:07.596Z,75.99
2023-03-04T06:07:39.216Z,76.30
2023-03-04T06:08:12.004Z,76.10
2023-03-04T06:08:43.724Z,76.19
2023-03-04T06:09:15.334Z,75.97
2023-03-04T06:09:46.877Z,75.88
2023-03-04T06:10:18.784Z,75.87
2023-03-04T06:10:53.435Z,76.01
2023-03-04T06:11:25.068Z,76.32
2023-03-04T06:11:56.638Z,76.23
2023-03-04T06:12:28.936Z,76.15
2023-03-04T06:13:00.506Z,76.04
2023-03-04T06:13:32.504Z,76.05
2023-03-04T06:14:04.109Z,75.90
2023-03-04T06:14:35.734Z,76.12
2023-03-04T06:15:10.169Z,76.00
2023-03-04T06:15:41.871Z,75.84
2023-03-04T06:16:13.535Z,76.05
2023-03-04T06:16:45.180Z,75.94
2023-03-04T06:17:16.948Z,75.84
2023-03-04T06:17:48.536Z,75.93
2023-03-04T06:18:20.210Z,75.98
2023-03-04T06:18:51.830Z,76.07
2023-03-04T06:19:23.530Z,76.02
2023-03-04T06:19:55.143Z,75.82
2023-03-04T06:20:26.803Z,75.81
2023-03-04T06:20:59.929Z,75.62
2023-03-04T06:21:31.602Z,75.84
2023-03-04T06:22:03.251Z,75.88
2023-03-04T06:22:35.680Z,75.80
2023-03-04T06:23:07.363Z,75.53
2023-03-04T06:23:38.991Z,75.88
2023-03-04T06:24:10.583Z,75.55
2023-03-04T06:24:42.167Z,75.64
2023-03-04T06:25:13.725Z,75.37
2023-03-04T06:25:45.337Z,75.47
2023-03-04T06:26:16.992Z,75.70
2023-03-04T06:26:48.639Z,75.51
2023-03-04T06:27:20.271Z,75.59
2023-03-04T06:27:53.009Z,75.40
2023-03-04T06:28:25.848Z,75.61
2023-03-04T06:28:57.584Z,75.37
2023-03-04T06:29:29.215Z,75.24
2023-03-04T06:30:01.834Z,75.05
2023-03-04T06:30:34.075Z,75.21
2023-03-04T06:31:05.799Z,75.00
2023-03-04T06:31:38.346Z,74.92
2023-03-04T06:32:10.025Z,75.07
2023-03-04T06:32:44.405Z,75.17
2023-03-04T06:33:16.041Z,74.84
2023-03-04T06:33:47.670Z,75.19
2023-03-04T06:34:19.411Z,75.25
2023-03-04T06:34:51.118Z,75.20
2023-03-04T06:35:22.878Z,75.32
2023-03-04T06:35:55.906Z,74.86
2023-03-04T06:36:27.502Z,74.95
2023-03-04T06:36:59.259Z,75.06
2023-03-04T06:37:30.871Z,74.86
2023-03-04T06:38:02.426Z,74.97
2023-03-04T06:38:34.083Z,74.73
2023-03-04T06:39:06.394Z,74.98
2023-03-04T06:39:38.011Z,74.85
2023-03-04T06:40:11.006Z,74.66
2023-03-04T06:40:42.683Z,74.98
2023-03-04T06:41:14.548Z,74.55
2023-03-04T06:41:46.270Z,74.65
2023-03-04T06:42:17.952Z,74.68
2023-03-04T06:42:49.492Z,74.48
2023-03-04T06:43:21.278Z,74.43
2023-03-04T06:43:55.862Z,74.46
2023-03-04T06:44:27.521Z,74.28
2023-03-04T06:44:59.123Z,74.42
2023-03-04T06:45:30.794Z,74.59
2023-03-04T06:46:02.377Z,74.53
2023-03-04T06:46:35.192Z,74.42
2023-03-04T06:47:07.497Z,74.10
2023-03-04T06:47:39.141Z,74.50
2023-03-04T06:48:10.839Z,74.64
2023-03-04T06:48:42.457Z,74.77
2023-03-04T06:49:14.094Z,74.80
2023-03-04T06:49:45.798Z,74.59
2023-03-04T06:50:17.475Z,74.61
2023-03-04T06:50:49.123Z,74.99
2023-03-04T06:51:20.843Z,74.95
2023-03-04T06:51:53.156Z,74.89
2023-03-04T06:52:24.820Z,74.82
2023-03-04T06:52:57.475Z,74.80
2023-03-04T06:53:29.123Z,75.09
2023-03-04T06:54:00.688Z,75.10
2023-03-04T06:54:32.285Z,74.61
2023-03-04T06:55:04.257Z,75.05